Time;durP1;ratioP1;P1;durP2;ratioP2;P2;SDS_P1;SDS_P2;PMS_P1;PMS_P2;Temp;Humidity;BMP_temperature;BMP_pressure;BME280_temperature;BME280_humidity;BME280_pressure;Samples;Min_cycle;Max_cycle;Signal;HPM_P1;HPM_P2
2022/12/02 00:01:12;;;;;;;25.03;8.97;;;2.40;99.90;;;;;;4115217;28;20799;-66
2022/12/02 00:03:18;;;;;;;22.13;9.40;;;2.50;99.90;;;;;;4114411;28;20543;-66
2022/12/02 00:05:33;;;;;;;20.50;9.97;;;2.50;99.90;;;;;;4114302;28;20418;-66
2022/12/02 00:07:35;;;;;;;23.43;8.37;;;2.50;99.90;;;;;;4115676;28;20427;-65
2022/12/02 00:09:36;;;;;;;24.23;9.60;;;2.60;99.90;;;;;;4114268;28;20410;-66
2022/12/02 00:11:40;;;;;;;22.83;8.60;;;2.60;99.90;;;;;;4115497;28;20413;-66
2022/12/02 00:13:42;;;;;;;21.27;8.33;;;2.50;99.90;;;;;;4114147;28;20184;-66
2022/12/02 00:15:46;;;;;;;17.30;8.30;;;2.50;99.90;;;;;;4115322;28;20520;-65
2022/12/02 00:17:47;;;;;;;19.40;8.53;;;2.50;99.90;;;;;;4115577;28;20962;-65
2022/12/02 00:19:47;;;;;;;20.23;9.27;;;2.60;99.90;;;;;;4115380;28;20440;-64
2022/12/02 00:21:50;;;;;;;20.50;8.00;;;2.50;99.90;;;;;;4115344;28;20243;-66
2022/12/02 00:23:50;;;;;;;20.90;8.00;;;2.40;99.90;;;;;;4113394;28;20193;-66
2022/12/02 00:25:53;;;;;;;21.63;8.90;;;2.40;99.90;;;;;;4113889;28;20918;-66
2022/12/02 00:27:53;;;;;;;22.47;8.27;;;2.50;99.90;;;;;;4115466;28;20187;-66
2022/12/02 00:29:54;;;;;;;35.80;12.30;;;2.40;99.90;;;;;;4115090;28;20439;-66
2022/12/02 00:31:54;;;;;;;26.77;9.97;;;2.40;99.90;;;;;;4115282;28;20193;-66
2022/12/02 00:33:56;;;;;;;28.57;10.03;;;2.40;99.90;;;;;;4113173;28;20274;-66
2022/12/02 00:35:57;;;;;;;32.37;11.07;;;2.50;99.90;;;;;;4115005;28;20263;-67
2022/12/02 00:37:58;;;;;;;31.20;10.97;;;2.40;99.90;;;;;;4113640;28;21260;-65
2022/12/02 00:39:59;;;;;;;43.80;9.77;;;2.50;99.90;;;;;;4113143;28;20188;-65
2022/12/02 00:41:59;;;;;;;52.13;10.83;;;2.40;99.90;;;;;;4114788;28;20889;-66
2022/12/02 00:46:31;;;;;;;18.60;7.93;;;2.50;99.90;;;;;;4115338;28;20273;-66
2022/12/02 00:48:32;;;;;;;51.13;10.83;;;2.50;99.90;;;;;;4114741;28;20404;-66
2022/12/02 00:50:32;;;;;;;82.20;12.80;;;2.50;99.90;;;;;;4114736;28;20859;-66
2022/12/02 00:52:33;;;;;;;106.90;18.37;;;2.50;99.90;;;;;;4114516;28;20230;-65
2022/12/02 00:54:34;;;;;;;29.77;10.13;;;2.40;99.90;;;;;;4102451;28;20250;-66
2022/12/02 00:56:35;;;;;;;99.67;20.57;;;2.40;99.90;;;;;;4115393;28;20212;-66
2022/12/02 00:58:36;;;;;;;39.93;11.37;;;2.20;99.90;;;;;;4115371;28;20191;-66
2022/12/02 01:00:36;;;;;;;88.10;13.90;;;2.30;99.90;;;;;;4115108;28;20545;-66
2022/12/02 01:02:37;;;;;;;38.77;11.83;;;2.30;99.90;;;;;;4114206;28;20710;-65
2022/12/02 01:04:38;;;;;;;47.20;15.30;;;2.30;99.90;;;;;;4114384;28;20220;-66
2022/12/02 01:06:38;;;;;;;39.73;10.87;;;2.40;99.90;;;;;;4114864;28;20213;-66
2022/12/02 01:08:40;;;;;;;38.93;10.80;;;2.40;99.90;;;;;;4114659;28;20246;-66
2022/12/02 01:10:40;;;;;;;45.67;10.43;;;2.50;99.90;;;;;;4114582;28;20179;-67
2022/12/02 01:12:41;;;;;;;59.63;14.97;;;2.50;99.90;;;;;;4114135;28;20457;-66
2022/12/02 01:14:42;;;;;;;57.23;16.27;;;2.50;99.90;;;;;;4114461;28;20179;-66
2022/12/02 01:16:43;;;;;;;69.53;12.23;;;2.40;99.90;;;;;;4112882;28;20218;-66
2022/12/02 01:18:43;;;;;;;56.60;12.13;;;2.50;99.90;;;;;;4114517;28;20189;-66
2022/12/02 01:20:44;;;;;;;222.73;21.27;;;2.40;99.90;;;;;;4113268;28;20189;-67
2022/12/02 01:22:45;;;;;;;81.83;15.00;;;2.40;99.90;;;;;;4113241;28;20192;-66
2022/12/02 01:24:45;;;;;;;82.17;16.87;;;2.20;99.90;;;;;;4114413;28;20187;-66
2022/12/02 01:26:46;;;;;;;42.60;10.10;;;2.10;99.90;;;;;;4114099;28;20223;-67
2022/12/02 01:28:47;;;;;;;64.70;14.27;;;2.20;99.90;;;;;;4114305;28;20187;-67
2022/12/02 01:30:47;;;;;;;61.37;14.90;;;2.20;99.90;;;;;;4114142;28;20194;-66
2022/12/02 01:32:48;;;;;;;48.57;15.00;;;2.20;99.90;;;;;;4112670;28;20181;-66
2022/12/02 01:34:49;;;;;;;77.57;13.80;;;2.30;99.90;;;;;;4114285;28;20195;-65
2022/12/02 01:36:50;;;;;;;73.90;13.63;;;2.50;99.90;;;;;;4114371;28;20606;-65
2022/12/02 01:38:51;;;;;;;54.10;12.37;;;2.50;99.90;;;;;;4114027;28;20477;-65
2022/12/02 01:40:52;;;;;;;49.33;11.00;;;2.60;99.90;;;;;;4113990;28;20195;-65
2022/12/02 01:42:53;;;;;;;36.00;10.17;;;2.60;99.90;;;;;;4112012;28;20469;-65
2022/12/02 01:44:53;;;;;;;78.33;12.40;;;2.60;99.90;;;;;;4112848;28;20833;-64
2022/12/02 01:46:54;;;;;;;38.43;11.17;;;2.50;99.90;;;;;;4112458;28;20725;-66
2022/12/02 01:48:55;;;;;;;39.30;11.43;;;2.50;99.90;;;;;;4113970;28;20178;-66
2022/12/02 01:50:56;;;;;;;44.67;12.07;;;2.40;99.90;;;;;;4113207;28;20187;-66
2022/12/02 01:52:57;;;;;;;31.47;9.13;;;2.40;99.90;;;;;;4111983;28;20188;-66
2022/12/02 01:54:58;;;;;;;35.67;9.50;;;2.40;99.90;;;;;;4114021;28;20436;-66
2022/12/02 01:56:59;;;;;;;24.57;8.83;;;2.40;99.90;;;;;;4112921;28;20208;-66
2022/12/02 01:58:59;;;;;;;51.13;12.90;;;2.50;99.90;;;;;;4112679;28;20648;-67
2022/12/02 02:01:00;;;;;;;27.10;9.40;;;2.60;99.90;;;;;;4112605;28;20261;-66
2022/12/02 02:03:01;;;;;;;40.77;10.60;;;2.50;99.90;;;;;;4112962;28;20204;-65
2022/12/02 02:05:15;;;;;;;27.30;8.60;;;2.50;99.90;;;;;;4112579;28;20199;-66
2022/12/02 02:07:16;;;;;;;28.60;8.37;;;2.60;99.90;;;;;;4112927;28;20616;-65
2022/12/02 02:09:17;;;;;;;27.13;9.80;;;2.60;99.90;;;;;;4112462;28;20432;-65
2022/12/02 02:11:18;;;;;;;32.07;10.50;;;2.50;99.90;;;;;;4112534;28;20197;-66
2022/12/02 02:13:19;;;;;;;28.40;9.77;;;2.40;99.90;;;;;;4112961;28;20623;-65
2022/12/02 02:15:21;;;;;;;28.93;9.17;;;2.40;99.90;;;;;;4113528;28;20460;-67
2022/12/02 02:17:22;;;;;;;23.40;9.57;;;2.50;99.90;;;;;;4112370;28;20197;-67
2022/12/02 02:19:23;;;;;;;22.13;10.07;;;2.50;99.90;;;;;;4128358;28;20433;-66
2022/12/02 02:21:35;;;;;;;31.60;9.57;;;2.60;99.90;;;;;;4113750;28;20183;-67
2022/12/02 02:23:36;;;;;;;19.80;7.97;;;2.50;99.90;;;;;;4111269;28;20171;-67
2022/12/02 02:25:42;;;;;;;28.57;9.60;;;2.60;99.90;;;;;;4112882;28;20448;-67
2022/12/02 02:27:54;;;;;;;28.90;9.83;;;2.60;99.90;;;;;;4111956;28;20176;-66
2022/12/02 02:29:55;;;;;;;35.90;11.37;;;2.60;99.90;;;;;;4111929;28;20468;-66
2022/12/02 02:31:55;;;;;;;26.70;9.63;;;2.70;99.90;;;;;;4111791;28;20432;-67
2022/12/02 02:33:56;;;;;;;26.97;9.50;;;2.70;99.90;;;;;;4112608;28;20228;-67
2022/12/02 02:35:57;;;;;;;33.83;11.37;;;2.50;99.90;;;;;;4111841;28;20749;-66
2022/12/02 02:37:58;;;;;;;25.00;8.70;;;2.50;99.90;;;;;;4113018;28;20192;-67
2022/12/02 02:39:58;;;;;;;18.70;6.67;;;2.50;99.90;;;;;;4113309;28;20189;-68
2022/12/02 02:41:59;;;;;;;19.17;7.83;;;2.50;99.90;;;;;;4111639;28;20190;-67
2022/12/02 02:44:00;;;;;;;15.93;7.77;;;2.50;99.90;;;;;;4111082;28;20602;-67
2022/12/02 02:46:02;;;;;;;22.83;8.17;;;2.40;99.90;;;;;;4112890;28;20752;-67
2022/12/02 02:48:06;;;;;;;17.13;7.37;;;2.30;99.90;;;;;;4110508;28;20437;-67
2022/12/02 02:50:07;;;;;;;20.90;7.77;;;2.30;99.90;;;;;;4096027;29;20423;-67
2022/12/02 02:52:08;;;;;;;15.30;6.63;;;2.30;99.90;;;;;;4111830;28;20505;-67
2022/12/02 02:54:09;;;;;;;18.50;7.40;;;2.40;99.90;;;;;;4096434;28;20420;-67
2022/12/02 02:56:10;;;;;;;15.67;6.53;;;2.30;99.90;;;;;;4097168;28;20211;-65
2022/12/02 02:58:14;;;;;;;13.57;6.00;;;2.40;99.90;;;;;;4111775;28;20614;-67
2022/12/02 03:00:17;;;;;;;23.67;8.40;;;2.50;99.90;;;;;;4097271;28;20488;-66
2022/12/02 03:02:18;;;;;;;15.93;7.17;;;2.50;99.90;;;;;;4097252;28;20789;-65
2022/12/02 03:04:20;;;;;;;13.80;6.87;;;2.50;99.90;;;;;;4114444;28;21260;-67
2022/12/02 03:06:25;;;;;;;13.03;6.87;;;2.50;99.90;;;;;;4114649;28;20472;-67
2022/12/02 03:08:30;;;;;;;13.17;5.87;;;2.50;99.90;;;;;;4098807;29;21014;-67
2022/12/02 03:10:32;;;;;;;20.07;7.70;;;2.60;99.90;;;;;;4114561;28;20418;-67
2022/12/02 03:12:33;;;;;;;15.60;6.27;;;2.60;99.90;;;;;;4099718;28;20469;-67
2022/12/02 03:14:33;;;;;;;12.07;6.20;;;2.60;99.90;;;;;;4099673;28;20429;-67
2022/12/02 03:16:34;;;;;;;15.07;6.70;;;2.60;99.90;;;;;;4114603;28;20733;-66
2022/12/02 03:18:36;;;;;;;14.53;6.60;;;2.50;99.90;;;;;;4099868;28;20203;-66
2022/12/02 03:20:37;;;;;;;13.90;6.33;;;2.50;99.90;;;;;;4100085;28;20186;-67
2022/12/02 03:22:38;;;;;;;12.40;6.07;;;2.60;99.90;;;;;;4114215;28;20987;-66
2022/12/02 03:24:40;;;;;;;11.83;6.03;;;2.70;99.90;;;;;;4099809;28;20182;-67
2022/12/02 03:26:41;;;;;;;13.63;5.77;;;2.70;99.90;;;;;;4099838;28;20278;-66
2022/12/02 03:28:42;;;;;;;14.20;5.70;;;2.70;99.90;;;;;;4108794;28;20446;-67
2022/12/02 03:30:43;;;;;;;14.27;5.40;;;2.70;99.90;;;;;;4114998;28;20964;-66
2022/12/02 03:32:44;;;;;;;12.50;6.13;;;2.60;99.90;;;;;;4113615;28;20188;-67
2022/12/02 03:34:44;;;;;;;11.17;5.53;;;2.60;99.90;;;;;;4130531;28;20436;-66
2022/12/02 03:36:45;;;;;;;13.13;6.13;;;2.70;99.90;;;;;;4115499;28;20209;-67
2022/12/02 03:38:46;;;;;;;11.83;5.97;;;2.70;99.90;;;;;;4115582;28;20192;-66
2022/12/02 03:40:47;;;;;;;15.80;6.00;;;2.70;99.90;;;;;;4114180;28;20678;-66
2022/12/02 03:42:48;;;;;;;11.33;6.23;;;2.60;99.90;;;;;;4129472;28;20456;-66
2022/12/02 03:44:50;;;;;;;11.13;5.37;;;2.60;99.90;;;;;;4112975;28;20521;-66
2022/12/02 03:46:50;;;;;;;9.43;5.37;;;2.50;99.90;;;;;;4115128;28;20320;-66
2022/12/02 03:48:52;;;;;;;14.50;6.27;;;2.50;99.90;;;;;;4114166;28;20961;-66
2022/12/02 03:50:53;;;;;;;16.77;6.77;;;2.60;99.90;;;;;;4114032;28;20180;-66
2022/12/02 03:52:55;;;;;;;13.63;6.40;;;2.60;99.90;;;;;;4113413;28;20456;-67
2022/12/02 03:54:56;;;;;;;12.73;5.90;;;2.60;99.90;;;;;;4114195;28;20425;-66
2022/12/02 03:56:56;;;;;;;10.43;5.70;;;2.60;99.90;;;;;;4115397;28;21000;-65
2022/12/02 03:58:57;;;;;;;14.20;6.50;;;2.60;99.90;;;;;;4098159;29;20450;-66
2022/12/02 04:00:58;;;;;;;13.53;6.13;;;2.60;99.90;;;;;;4115322;28;20187;-66
2022/12/02 04:02:58;;;;;;;16.67;6.63;;;2.70;99.90;;;;;;4114726;28;20194;-66
2022/12/02 04:04:59;;;;;;;18.07;7.20;;;2.70;99.90;;;;;;4115326;28;20195;-66
2022/12/02 04:06:59;;;;;;;14.80;7.23;;;2.60;99.90;;;;;;4115218;28;20706;-66
2022/12/02 04:09:00;;;;;;;17.60;7.20;;;2.60;99.90;;;;;;4115242;28;20545;-67
2022/12/02 04:11:01;;;;;;;15.90;6.57;;;2.60;99.90;;;;;;4115175;28;20665;-67
2022/12/02 04:13:02;;;;;;;15.93;7.43;;;2.70;99.90;;;;;;4113217;28;20196;-67
2022/12/02 04:15:03;;;;;;;16.10;6.50;;;2.60;99.90;;;;;;4114005;28;20639;-66
2022/12/02 04:17:03;;;;;;;22.90;7.77;;;2.60;99.90;;;;;;4114923;28;20206;-66
2022/12/02 04:19:04;;;;;;;15.83;6.70;;;2.60;99.90;;;;;;4115048;28;21290;-66
2022/12/02 04:21:05;;;;;;;15.80;7.07;;;2.60;99.90;;;;;;4115033;28;20545;-67
2022/12/02 04:23:05;;;;;;;11.20;5.40;;;2.60;99.90;;;;;;4114300;28;20191;-66
2022/12/02 04:25:06;;;;;;;19.93;7.83;;;2.60;99.90;;;;;;4113769;28;20194;-66
2022/12/02 04:27:07;;;;;;;22.50;7.70;;;2.50;99.90;;;;;;4114888;28;20255;-66
2022/12/02 04:29:08;;;;;;;17.80;6.80;;;2.50;99.90;;;;;;4114657;28;20914;-66
2022/12/02 04:31:08;;;;;;;24.47;7.53;;;2.50;99.90;;;;;;4113800;28;20177;-66
2022/12/02 04:33:09;;;;;;;18.57;7.40;;;2.60;99.90;;;;;;4114471;28;20216;-67
2022/12/02 04:35:10;;;;;;;15.23;6.77;;;2.50;99.90;;;;;;4114644;28;20190;-65
2022/12/02 04:37:10;;;;;;;25.60;7.10;;;2.40;99.90;;;;;;4114955;28;20185;-66
2022/12/02 04:39:11;;;;;;;19.70;6.77;;;2.40;99.90;;;;;;4114605;28;20345;-67
2022/12/02 04:41:12;;;;;;;16.87;6.73;;;2.50;99.90;;;;;;4113265;28;20681;-65
2022/12/02 04:43:12;;;;;;;22.87;7.33;;;2.50;99.90;;;;;;4113819;28;20179;-65
2022/12/02 04:45:14;;;;;;;19.17;7.87;;;2.60;99.90;;;;;;4111919;28;20222;-66
2022/12/02 04:47:14;;;;;;;16.27;6.23;;;2.60;99.90;;;;;;4100715;28;20204;-66
2022/12/02 04:49:15;;;;;;;22.63;8.30;;;2.60;99.90;;;;;;4098444;28;20983;-66
2022/12/02 04:51:16;;;;;;;20.77;6.70;;;2.60;99.90;;;;;;4098488;28;20249;-65
2022/12/02 04:53:17;;;;;;;18.80;7.33;;;2.60;99.90;;;;;;4097812;28;20523;-66
2022/12/02 04:55:17;;;;;;;14.10;6.43;;;2.70;99.90;;;;;;4098241;28;20184;-66
2022/12/02 04:57:18;;;;;;;18.63;6.67;;;2.60;99.90;;;;;;4098460;28;20616;-66
2022/12/02 04:59:19;;;;;;;17.53;7.10;;;2.60;99.90;;;;;;4112934;28;20229;-65
2022/12/02 05:01:19;;;;;;;15.97;6.93;;;2.60;99.90;;;;;;4104735;28;20190;-66
2022/12/02 05:03:20;;;;;;;13.57;5.73;;;2.60;99.90;;;;;;4113712;28;20273;-66
2022/12/02 05:05:21;;;;;;;14.10;5.93;;;2.70;99.90;;;;;;4114299;28;20182;-66
2022/12/02 05:07:21;;;;;;;14.73;6.00;;;2.60;99.90;;;;;;4114402;28;20218;-66
2022/12/02 05:09:22;;;;;;;13.30;6.13;;;2.60;99.90;;;;;;4114760;28;20194;-66
2022/12/02 05:11:23;;;;;;;13.27;5.60;;;2.50;99.90;;;;;;4114353;28;20673;-65
2022/12/02 05:13:23;;;;;;;13.33;6.00;;;2.50;99.90;;;;;;4112235;28;20283;-67
2022/12/02 05:15:24;;;;;;;13.87;6.73;;;2.60;99.90;;;;;;4114184;28;20203;-66
2022/12/02 05:17:25;;;;;;;20.47;7.03;;;2.60;99.90;;;;;;4112970;28;20245;-66
2022/12/02 05:19:25;;;;;;;20.20;6.30;;;2.60;99.90;;;;;;4114584;28;20191;-66
2022/12/02 05:21:26;;;;;;;12.40;5.60;;;2.70;99.90;;;;;;4114085;28;20224;-65
2022/12/02 05:23:27;;;;;;;12.80;5.10;;;2.70;99.90;;;;;;4112167;28;20243;-65
2022/12/02 05:25:27;;;;;;;21.47;6.90;;;2.70;99.90;;;;;;4113841;28;20240;-66
2022/12/02 05:27:28;;;;;;;16.33;6.37;;;2.70;99.90;;;;;;4113975;28;20212;-65
2022/12/02 05:29:29;;;;;;;13.60;6.03;;;2.60;99.90;;;;;;4113828;28;20183;-66
2022/12/02 05:31:29;;;;;;;11.57;6.40;;;2.60;99.90;;;;;;4112570;28;20753;-65
2022/12/02 05:33:30;;;;;;;15.17;5.70;;;2.60;99.90;;;;;;4113266;28;20540;-65
2022/12/02 05:35:31;;;;;;;12.87;5.40;;;2.60;99.90;;;;;;4113331;28;20221;-66
2022/12/02 05:37:31;;;;;;;13.80;5.83;;;2.60;99.90;;;;;;4113559;28;20198;-66
2022/12/02 05:39:32;;;;;;;13.47;5.53;;;2.60;99.90;;;;;;4114384;28;20189;-66
2022/12/02 05:41:33;;;;;;;17.20;6.07;;;2.70;99.90;;;;;;4114372;28;20281;-67
2022/12/02 05:43:39;;;;;;;12.30;5.67;;;2.80;99.90;;;;;;4111946;28;20196;-67
2022/12/02 05:45:39;;;;;;;15.43;6.60;;;2.80;99.90;;;;;;4109816;28;20481;-67
2022/12/02 05:47:40;;;;;;;15.47;5.83;;;2.80;99.90;;;;;;4113435;28;20476;-66
2022/12/02 05:49:44;;;;;;;12.57;5.30;;;2.80;99.90;;;;;;4112599;28;20193;-67
2022/12/02 05:51:55;;;;;;;12.60;5.63;;;2.80;99.90;;;;;;4128708;28;20418;-66
2022/12/02 05:53:56;;;;;;;11.40;5.33;;;2.80;99.90;;;;;;4111729;28;20429;-66
2022/12/02 05:55:59;;;;;;;13.13;5.10;;;2.80;99.90;;;;;;4113418;28;20446;-66
2022/12/02 05:58:01;;;;;;;12.07;4.87;;;2.80;99.90;;;;;;4112239;28;20974;-68
2022/12/02 06:00:08;;;;;;;10.40;4.80;;;2.70;99.90;;;;;;4113406;28;20519;-66
2022/12/02 06:02:37;;;;;;;11.87;5.23;;;2.70;99.90;;;;;;4113184;28;20497;-67
2022/12/02 06:04:38;;;;;;;12.80;4.97;;;2.80;99.90;;;;;;4111942;28;20785;-67
2022/12/02 06:06:39;;;;;;;11.43;4.83;;;2.80;99.90;;;;;;4112973;28;20479;-66
2022/12/02 06:08:39;;;;;;;10.90;5.30;;;2.90;99.90;;;;;;4113583;28;20189;-67
2022/12/02 06:10:43;;;;;;;11.77;5.07;;;2.80;99.90;;;;;;4113912;28;20190;-66
2022/12/02 06:12:44;;;;;;;10.37;5.07;;;2.70;99.90;;;;;;4111472;28;20197;-66
2022/12/02 06:14:52;;;;;;;12.47;5.43;;;2.70;99.90;;;;;;4113174;28;20574;-66
2022/12/02 06:17:01;;;;;;;13.57;5.60;;;2.70;99.90;;;;;;4112075;28;20996;-66
2022/12/02 06:19:19;;;;;;;12.07;5.30;;;2.80;99.90;;;;;;4113421;28;20453;-67
2022/12/02 06:21:21;;;;;;;12.67;4.90;;;2.80;99.90;;;;;;4111808;28;20431;-66
2022/12/02 06:23:25;;;;;;;14.83;5.13;;;2.80;99.90;;;;;;4112704;28;20444;-66
2022/12/02 06:25:29;;;;;;;12.33;6.20;;;2.90;99.90;;;;;;4111864;28;20430;-67
2022/12/02 06:27:32;;;;;;;12.83;5.60;;;2.80;99.90;;;;;;4111927;28;20622;-66
2022/12/02 06:29:34;;;;;;;9.73;4.43;;;2.90;99.90;;;;;;4113220;28;20433;-67
2022/12/02 06:31:38;;;;;;;11.37;5.50;;;2.90;99.90;;;;;;4113131;28;20516;-67
2022/12/02 06:33:39;;;;;;;15.67;5.50;;;2.90;99.90;;;;;;4111361;28;20425;-67
2022/12/02 06:35:40;;;;;;;14.30;5.73;;;2.90;99.90;;;;;;4113176;28;20463;-67
2022/12/02 06:37:42;;;;;;;12.73;6.33;;;2.90;99.90;;;;;;4114077;28;20183;-66
2022/12/02 06:39:47;;;;;;;11.07;5.77;;;2.90;99.90;;;;;;4116591;28;20446;-67
2022/12/02 06:41:49;;;;;;;18.17;7.37;;;2.90;99.90;;;;;;4116394;28;20424;-66
2022/12/02 06:46:19;;;;;;;11.53;5.50;;;2.80;99.90;;;;;;4116416;28;20912;-66
2022/12/02 06:48:35;;;;;;;12.47;5.40;;;2.70;99.90;;;;;;4114968;28;20453;-65
2022/12/02 06:50:47;;;;;;;12.30;5.33;;;2.80;99.90;;;;;;4114707;28;20999;-65
2022/12/02 06:52:47;;;;;;;12.83;6.33;;;2.80;99.90;;;;;;4099784;29;20462;-65
2022/12/02 06:54:51;;;;;;;11.43;5.33;;;2.70;99.90;;;;;;4100239;28;20520;-66
2022/12/02 06:56:52;;;;;;;14.73;5.30;;;2.80;99.90;;;;;;4099038;29;20731;-66
2022/12/02 06:58:57;;;;;;;16.33;5.57;;;2.80;99.90;;;;;;4100103;29;20500;-66
2022/12/02 07:01:06;;;;;;;13.27;6.33;;;2.80;99.90;;;;;;4100309;28;20438;-67
2022/12/02 07:03:34;;;;;;;12.07;5.83;;;2.90;99.90;;;;;;4099586;28;20456;-67
2022/12/02 07:05:34;;;;;;;9.40;5.47;;;3.00;99.90;;;;;;4098937;29;21178;-66
2022/12/02 07:07:35;;;;;;;10.63;5.47;;;2.90;99.90;;;;;;4100303;29;20478;-66
2022/12/02 07:09:39;;;;;;;13.90;5.90;;;2.90;99.90;;;;;;4099067;29;20189;-66
2022/12/02 07:11:48;;;;;;;15.93;5.93;;;2.80;99.90;;;;;;4100274;28;20191;-65
2022/12/02 07:13:49;;;;;;;13.57;7.03;;;2.90;99.90;;;;;;4098255;29;20859;-66
2022/12/02 07:15:50;;;;;;;15.63;6.80;;;2.90;99.90;;;;;;4098662;29;20444;-66
2022/12/02 07:17:51;;;;;;;13.77;6.60;;;2.80;99.90;;;;;;4099983;29;20204;-66
2022/12/02 07:20:19;;;;;;;19.63;7.43;;;2.80;99.90;;;;;;4098510;29;20189;-66
2022/12/02 07:22:24;;;;;;;18.43;7.43;;;2.80;99.90;;;;;;4095977;29;20210;-65
2022/12/02 07:24:26;;;;;;;19.10;7.23;;;2.70;99.90;;;;;;4113862;28;20518;-66
2022/12/02 07:26:27;;;;;;;25.70;8.17;;;2.60;99.90;;;;;;4099586;28;20483;-67
2022/12/02 07:28:37;;;;;;;22.83;7.83;;;2.60;99.90;;;;;;4099922;28;20934;-66
2022/12/02 07:30:41;;;;;;;23.27;8.00;;;2.60;99.90;;;;;;4100024;28;20178;-66
2022/12/02 07:32:42;;;;;;;20.37;8.60;;;2.40;99.90;;;;;;4097868;29;20458;-67
2022/12/02 07:34:43;;;;;;;20.93;7.33;;;2.50;99.90;;;;;;4106923;28;20434;-66
2022/12/02 07:36:43;;;;;;;24.40;8.50;;;2.60;99.90;;;;;;4115612;28;20213;-66
2022/12/02 07:38:44;;;;;;;20.47;8.47;;;2.50;99.90;;;;;;4114373;28;20190;-66
2022/12/02 07:40:45;;;;;;;55.97;25.63;;;2.50;99.90;;;;;;4115599;28;20201;-66
2022/12/02 07:42:46;;;;;;;21.20;8.70;;;2.60;99.90;;;;;;4114913;28;20712;-66
2022/12/02 07:44:47;;;;;;;25.13;8.10;;;2.70;99.90;;;;;;4114234;28;20196;-65
2022/12/02 07:46:47;;;;;;;17.87;7.67;;;2.70;99.90;;;;;;4115727;28;20488;-66
2022/12/02 07:48:48;;;;;;;20.63;8.00;;;2.70;99.90;;;;;;4116294;28;20185;-66
2022/12/02 07:50:49;;;;;;;20.67;7.43;;;2.70;99.90;;;;;;4115340;28;20183;-65
2022/12/02 07:52:50;;;;;;;18.47;7.87;;;2.60;99.90;;;;;;4114809;28;20197;-66
2022/12/02 07:54:53;;;;;;;19.27;8.80;;;2.60;99.90;;;;;;4115392;28;20224;-66
2022/12/02 07:56:54;;;;;;;18.33;6.43;;;2.70;99.90;;;;;;4115133;28;20279;-66
2022/12/02 07:58:54;;;;;;;18.33;7.20;;;2.80;99.90;;;;;;4115167;28;20887;-66
2022/12/02 08:00:55;;;;;;;18.70;7.27;;;2.80;99.90;;;;;;4115249;28;20566;-66
2022/12/02 08:02:56;;;;;;;19.47;7.53;;;2.80;99.90;;;;;;4113260;28;20258;-66
2022/12/02 08:04:58;;;;;;;19.70;7.60;;;2.90;99.90;;;;;;4115183;28;20312;-66
2022/12/02 08:06:58;;;;;;;15.97;6.83;;;2.90;99.90;;;;;;4115146;28;20519;-66
2022/12/02 08:08:59;;;;;;;13.27;5.97;;;2.90;99.90;;;;;;4115262;28;20243;-67
2022/12/02 08:11:00;;;;;;;16.00;7.37;;;3.00;99.90;;;;;;4115285;28;20190;-66
2022/12/02 08:13:00;;;;;;;13.20;5.80;;;3.10;99.90;;;;;;4114420;28;20196;-67
2022/12/02 08:15:01;;;;;;;12.33;5.17;;;3.10;99.90;;;;;;4113952;28;20178;-67
2022/12/02 08:17:02;;;;;;;13.30;6.03;;;3.20;99.90;;;;;;4114966;28;20291;-67
2022/12/02 08:19:02;;;;;;;14.30;6.10;;;3.20;99.90;;;;;;4114984;28;20185;-67
2022/12/02 08:21:03;;;;;;;10.60;5.40;;;3.20;99.90;;;;;;4114993;28;20190;-67
2022/12/02 08:23:04;;;;;;;13.00;5.70;;;3.10;99.90;;;;;;4114178;28;20277;-66
2022/12/02 08:25:05;;;;;;;9.27;4.57;;;3.10;99.90;;;;;;4114999;28;20188;-67
2022/12/02 08:27:06;;;;;;;11.33;6.00;;;3.20;99.90;;;;;;4114986;28;20279;-66
2022/12/02 08:29:07;;;;;;;9.90;5.67;;;3.20;99.90;;;;;;4114827;28;20815;-67
2022/12/02 08:31:08;;;;;;;9.60;4.27;;;3.30;99.90;;;;;;4114927;28;20686;-66
2022/12/02 08:33:09;;;;;;;8.17;3.83;;;3.40;99.90;;;;;;4114270;28;20421;-67
2022/12/02 08:35:11;;;;;;;10.10;4.33;;;3.40;99.90;;;;;;4113850;28;20667;-67
2022/12/02 08:37:12;;;;;;;7.53;4.13;;;3.30;99.90;;;;;;4115259;28;20208;-67
2022/12/02 08:39:13;;;;;;;14.30;6.83;;;3.40;99.90;;;;;;4114968;28;20444;-67
2022/12/02 08:41:14;;;;;;;14.60;7.80;;;3.50;99.90;;;;;;4114837;28;20441;-67
2022/12/02 08:43:15;;;;;;;10.30;4.90;;;3.60;99.90;;;;;;4102466;28;20205;-66
2022/12/02 08:45:16;;;;;;;8.57;4.27;;;3.60;99.90;;;;;;4098468;29;20962;-66
2022/12/02 08:47:16;;;;;;;8.57;4.80;;;3.60;99.90;;;;;;4098798;28;20229;-67
2022/12/02 08:49:17;;;;;;;8.17;4.70;;;3.70;99.90;;;;;;4098618;29;20205;-67
2022/12/02 08:51:18;;;;;;;8.63;4.03;;;3.80;99.90;;;;;;4113389;28;20189;-66
2022/12/02 08:53:20;;;;;;;7.50;4.50;;;3.80;99.90;;;;;;4097905;29;20440;-67
2022/12/02 08:55:21;;;;;;;6.77;4.00;;;3.90;99.90;;;;;;4098496;28;20429;-66
2022/12/02 08:57:21;;;;;;;10.67;4.80;;;3.90;99.90;;;;;;4098782;28;20430;-67
2022/12/02 08:59:22;;;;;;;8.77;4.07;;;3.90;99.90;;;;;;4091494;28;20232;-67
2022/12/02 09:01:23;;;;;;;12.00;5.73;;;3.90;99.90;;;;;;4112991;28;20201;-66
2022/12/02 09:03:23;;;;;;;16.87;7.77;;;3.90;99.90;;;;;;4113269;28;20264;-68
2022/12/02 09:05:24;;;;;;;13.00;5.30;;;3.90;99.90;;;;;;4113896;28;20185;-67
2022/12/02 09:07:25;;;;;;;9.83;5.27;;;3.80;99.90;;;;;;4113620;28;20213;-66
2022/12/02 09:09:25;;;;;;;7.70;4.07;;;3.50;99.90;;;;;;4113809;28;20278;-66
2022/12/02 09:11:26;;;;;;;8.03;3.83;;;3.50;99.90;;;;;;4113796;28;20180;-66
2022/12/02 09:13:27;;;;;;;5.53;3.37;;;3.70;99.90;;;;;;4113247;28;20179;-66
2022/12/02 09:15:27;;;;;;;6.43;3.57;;;3.80;99.90;;;;;;4112585;28;20654;-66
2022/12/02 09:17:28;;;;;;;8.10;4.03;;;3.90;99.90;;;;;;4113657;28;20604;-66
2022/12/02 09:19:29;;;;;;;6.93;3.20;;;3.80;99.90;;;;;;4113668;28;20239;-64
2022/12/02 09:21:29;;;;;;;5.10;3.27;;;3.70;99.90;;;;;;4113575;28;20249;-64
2022/12/02 09:23:30;;;;;;;4.23;3.00;;;3.70;99.90;;;;;;4112756;28;20228;-65
2022/12/02 09:25:31;;;;;;;5.77;3.43;;;3.80;99.90;;;;;;4112661;28;20772;-63
2022/12/02 09:27:32;;;;;;;5.53;3.17;;;3.80;99.90;;;;;;4113773;28;20206;-65
2022/12/02 09:29:33;;;;;;;5.77;3.60;;;3.70;99.90;;;;;;4113831;28;20297;-65
2022/12/02 09:31:34;;;;;;;6.30;4.10;;;3.80;99.90;;;;;;4113950;28;20227;-64
2022/12/02 09:33:35;;;;;;;7.90;3.97;;;3.80;99.90;;;;;;4112796;28;20441;-66
2022/12/02 09:35:35;;;;;;;7.47;4.30;;;3.80;99.90;;;;;;4113445;28;20675;-63
2022/12/02 09:37:36;;;;;;;5.60;3.50;;;3.70;99.90;;;;;;4113797;28;20682;-64
2022/12/02 09:39:37;;;;;;;4.80;3.17;;;3.70;99.90;;;;;;4112490;28;20644;-65
2022/12/02 09:41:37;;;;;;;5.77;3.23;;;3.70;99.90;;;;;;4113410;28;20197;-64
2022/12/02 09:43:38;;;;;;;4.23;2.67;;;3.80;99.90;;;;;;4113540;28;20178;-65
2022/12/02 09:45:40;;;;;;;5.60;3.27;;;3.90;99.90;;;;;;4114076;28;20201;-65
2022/12/02 09:47:42;;;;;;;5.23;3.20;;;3.90;99.90;;;;;;4113833;28;20214;-65
2022/12/02 09:49:44;;;;;;;5.77;3.37;;;3.50;99.90;;;;;;4112508;28;20522;-65
2022/12/02 09:51:44;;;;;;;5.13;3.63;;;3.40;99.90;;;;;;4113420;28;20511;-65
2022/12/02 09:53:46;;;;;;;3.70;2.60;;;3.60;99.90;;;;;;4113085;28;20810;-65
2022/12/02 09:55:47;;;;;;;7.43;3.60;;;3.70;99.90;;;;;;4112429;28;20206;-65
2022/12/02 09:57:47;;;;;;;9.10;4.10;;;3.70;99.90;;;;;;4113493;28;20440;-65
2022/12/02 09:59:48;;;;;;;5.60;3.30;;;3.80;99.90;;;;;;4113676;28;20186;-63
2022/12/02 10:01:49;;;;;;;6.50;3.40;;;3.60;99.90;;;;;;4112242;28;20651;-64
2022/12/02 10:03:50;;;;;;;3.80;2.80;;;3.60;99.90;;;;;;4111594;28;20235;-67
2022/12/02 10:05:51;;;;;;;7.13;4.40;;;3.60;99.90;;;;;;4113331;28;20209;-65
2022/12/02 10:07:56;;;;;;;6.63;3.60;;;3.70;99.90;;;;;;4113388;28;20433;-65
2022/12/02 10:09:57;;;;;;;5.60;4.20;;;3.80;99.90;;;;;;4112114;28;20838;-65
2022/12/02 10:11:58;;;;;;;5.27;3.50;;;3.80;99.90;;;;;;4111299;28;20472;-65
2022/12/02 10:13:59;;;;;;;6.13;3.57;;;4.00;99.90;;;;;;4112737;28;20663;-66
2022/12/02 10:16:01;;;;;;;4.67;2.87;;;3.80;99.90;;;;;;4112320;28;20252;-67
2022/12/02 10:18:12;;;;;;;6.43;4.00;;;3.70;99.90;;;;;;4112380;28;20465;-67
2022/12/02 10:20:19;;;;;;;6.37;3.40;;;3.80;99.90;;;;;;4112254;28;20945;-67
2022/12/02 10:22:21;;;;;;;6.10;4.27;;;3.90;99.90;;;;;;4126960;28;20418;-66
2022/12/02 10:24:38;;;;;;;8.60;5.93;;;4.10;99.90;;;;;;4111419;28;20441;-66
2022/12/02 10:26:49;;;;;;;6.60;4.37;;;4.20;99.90;;;;;;4110645;28;20579;-66
2022/12/02 10:29:06;;;;;;;8.20;5.43;;;4.20;99.90;;;;;;4111881;28;20480;-66
2022/12/02 10:31:11;;;;;;;8.73;6.13;;;4.20;99.90;;;;;;4112232;28;20873;-65
2022/12/02 10:33:12;;;;;;;7.40;5.30;;;4.30;99.90;;;;;;4112102;28;20457;-67
2022/12/02 10:35:13;;;;;;;8.00;4.50;;;4.30;99.90;;;;;;4111201;28;20492;-66
2022/12/02 10:37:33;;;;;;;6.97;4.20;;;4.20;99.90;;;;;;4113116;28;20249;-66
2022/12/02 10:39:34;;;;;;;7.87;4.90;;;4.20;99.90;;;;;;4113032;28;20182;-66
2022/12/02 10:41:35;;;;;;;8.43;4.70;;;4.10;99.90;;;;;;4111838;28;20488;-66